createdAt,value
2019-05-17T00:02:46.606Z,9.20
2019-05-17T00:05:26.965Z,10.00
2019-05-17T00:08:07.651Z,9.77
2019-05-17T00:10:37.638Z,10.33
2019-05-17T00:13:26.746Z,10.67
2019-05-17T00:16:07.195Z,9.90
2019-05-17T00:18:47.211Z,10.73
2019-05-17T00:21:27.533Z,10.83
2019-05-17T00:24:07.279Z,10.97
2019-05-17T00:26:47.314Z,10.60
2019-05-17T00:29:27.541Z,10.47
2019-05-17T00:32:08.047Z,10.27
2019-05-17T00:34:37.740Z,10.70
2019-05-17T00:37:26.456Z,10.40
2019-05-17T00:40:07.371Z,10.57
2019-05-17T00:42:47.099Z,10.57
2019-05-17T00:45:27.182Z,10.83
2019-05-17T00:48:07.366Z,11.23
2019-05-17T00:50:53.252Z,10.73
2019-05-17T00:53:29.714Z,10.90
2019-05-17T00:56:10.521Z,10.47
2019-05-17T01:01:48.994Z,11.57
2019-05-17T01:04:29.406Z,11.37
2019-05-17T01:07:09.500Z,10.33
2019-05-17T01:09:49.779Z,11.40
2019-05-17T01:12:29.729Z,11.40
2019-05-17T01:15:09.865Z,10.70
2019-05-17T01:17:37.623Z,11.93
2019-05-17T01:20:44.082Z,12.00
2019-05-17T01:23:26.977Z,12.27
2019-05-17T01:26:07.664Z,12.50
2019-05-17T01:28:48.178Z,12.20
2019-05-17T01:31:28.349Z,12.03
2019-05-17T01:34:08.377Z,12.37
2019-05-17T01:36:48.430Z,11.77
2019-05-17T01:39:28.596Z,12.00
2019-05-17T01:42:08.541Z,12.27
2019-05-17T01:44:48.662Z,12.23
2019-05-17T01:47:28.584Z,11.90
2019-05-17T01:50:08.746Z,12.07
2019-05-17T01:52:48.857Z,11.87
2019-05-17T01:55:29.128Z,12.33
2019-05-17T01:58:08.721Z,12.97
2019-05-17T02:00:48.803Z,12.03
2019-05-17T02:03:28.758Z,12.43
2019-05-17T02:06:08.757Z,12.43
2019-05-17T02:08:49.174Z,12.53
2019-05-17T02:11:29.009Z,12.07
2019-05-17T02:14:09.142Z,11.60
2019-05-17T02:16:49.380Z,12.50
2019-05-17T02:19:29.201Z,13.10
2019-05-17T02:22:09.325Z,12.47
2019-05-17T02:24:49.686Z,12.20
2019-05-17T02:27:35.945Z,12.67
2019-05-17T02:30:14.095Z,13.70
2019-05-17T02:32:54.187Z,12.83
2019-05-17T02:35:23.087Z,13.20
2019-05-17T02:38:13.250Z,12.93
2019-05-17T02:40:53.757Z,12.23
2019-05-17T02:43:34.307Z,12.07
2019-05-17T02:46:14.442Z,11.60
2019-05-17T02:48:56.362Z,12.00
2019-05-17T02:51:43.431Z,12.70
2019-05-17T02:54:32.819Z,12.60
2019-05-17T02:57:14.247Z,11.97
2019-05-17T02:59:54.206Z,11.23
2019-05-17T03:02:27.017Z,11.47
2019-05-17T03:05:12.803Z,11.33
2019-05-17T03:08:03.652Z,11.83
2019-05-17T03:10:43.297Z,12.03
2019-05-17T03:13:23.872Z,11.87
2019-05-17T03:16:04.147Z,11.57
2019-05-17T03:18:44.128Z,11.23
2019-05-17T03:21:25.061Z,10.43
2019-05-17T03:24:05.568Z,10.50
2019-05-17T03:26:45.366Z,9.63
2019-05-17T03:29:25.675Z,9.73
2019-05-17T03:32:08.315Z,10.30
2019-05-17T03:34:48.069Z,10.53
2019-05-17T03:37:34.079Z,10.10
2019-05-17T03:40:27.557Z,10.47
2019-05-17T03:42:53.901Z,10.40
2019-05-17T03:48:46.795Z,10.33
2019-05-17T03:51:27.125Z,10.70
2019-05-17T03:53:54.800Z,11.27
2019-05-17T03:56:22.592Z,10.07
2019-05-17T03:59:12.605Z,10.37
2019-05-17T04:01:58.505Z,10.77
2019-05-17T04:04:39.016Z,11.83
2019-05-17T04:07:23.542Z,10.30
2019-05-17T04:10:04.724Z,10.17
2019-05-17T04:12:44.194Z,9.83
2019-05-17T04:15:32.840Z,10.13
2019-05-17T04:18:13.735Z,10.67
2019-05-17T04:20:54.066Z,10.50
2019-05-17T04:23:34.321Z,10.57
2019-05-17T04:26:14.483Z,10.73
2019-05-17T04:28:56.287Z,10.40
2019-05-17T04:31:36.614Z,9.87
2019-05-17T04:34:16.822Z,10.37
2019-05-17T04:36:58.289Z,10.43
2019-05-17T04:39:37.896Z,9.90
2019-05-17T04:42:18.197Z,10.17
2019-05-17T04:44:58.666Z,10.17
2019-05-17T04:47:38.610Z,9.83
2019-05-17T04:50:19.046Z,10.50
2019-05-17T04:52:58.816Z,9.93
2019-05-17T04:55:39.139Z,9.97
2019-05-17T04:58:22.980Z,9.67
2019-05-17T05:01:03.906Z,9.77
2019-05-17T05:03:43.840Z,9.70
2019-05-17T05:06:24.214Z,9.40
2019-05-17T05:09:05.309Z,9.20
2019-05-17T05:11:59.655Z,9.53
2019-05-17T05:14:15.731Z,8.63
2019-05-17T05:17:02.829Z,8.60
2019-05-17T05:19:42.710Z,9.17
2019-05-17T05:22:22.655Z,9.10
2019-05-17T05:28:13.707Z,10.00
2019-05-17T05:31:02.360Z,9.37
2019-05-17T05:33:42.565Z,10.23
2019-05-17T05:36:22.573Z,11.20
2019-05-17T05:39:04.013Z,13.70
2019-05-17T05:41:43.645Z,13.10
2019-05-17T05:44:23.881Z,11.90
2019-05-17T05:47:03.672Z,11.90
2019-05-17T05:49:43.753Z,13.10
2019-05-17T05:52:23.973Z,12.40
2019-05-17T05:55:04.090Z,12.47
2019-05-17T05:57:44.281Z,12.47
2019-05-17T06:00:24.274Z,11.70
2019-05-17T06:03:04.352Z,11.23
2019-05-17T06:05:44.942Z,11.73
2019-05-17T06:08:25.379Z,12.97
2019-05-17T06:11:05.297Z,12.93
2019-05-17T06:13:45.358Z,12.80
2019-05-17T06:16:25.650Z,14.07
2019-05-17T06:19:05.796Z,12.33
2019-05-17T06:21:48.855Z,12.13
2019-05-17T06:24:31.935Z,12.80
2019-05-17T06:27:12.503Z,12.80
2019-05-17T06:29:52.505Z,13.90
2019-05-17T06:32:32.699Z,13.50
2019-05-17T06:35:01.883Z,13.43
2019-05-17T06:37:49.173Z,14.10
2019-05-17T06:40:17.229Z,13.33
2019-05-17T06:43:04.513Z,12.67
2019-05-17T06:45:53.109Z,12.30
2019-05-17T06:48:33.687Z,12.90
2019-05-17T06:51:02.545Z,13.37
2019-05-17T06:53:52.233Z,13.30
2019-05-17T06:56:38.897Z,13.23
2019-05-17T06:59:19.017Z,13.27
2019-05-17T07:01:59.778Z,13.43
2019-05-17T07:04:39.655Z,14.63
2019-05-17T07:07:26.106Z,14.20
2019-05-17T07:10:06.327Z,14.57
2019-05-17T07:12:55.974Z,14.40
2019-05-17T07:15:43.043Z,14.03
2019-05-17T07:17:59.960Z,14.17
2019-05-17T07:20:49.983Z,14.13
2019-05-17T07:23:30.283Z,13.07
2019-05-17T07:26:12.086Z,13.70
2019-05-17T07:28:51.907Z,14.17
2019-05-17T07:31:32.190Z,14.17
2019-05-17T07:34:12.333Z,14.87
2019-05-17T07:36:52.514Z,14.63
2019-05-17T07:39:32.438Z,14.20
2019-05-17T07:42:12.536Z,14.00
2019-05-17T07:44:52.705Z,15.40
2019-05-17T07:47:32.676Z,12.37
2019-05-17T07:50:12.754Z,10.50
2019-05-17T07:52:52.669Z,12.80
2019-05-17T07:55:32.726Z,12.30
2019-05-17T07:58:12.321Z,12.20
2019-05-17T08:00:52.493Z,11.70
2019-05-17T08:03:32.650Z,11.93
2019-05-17T08:06:12.874Z,11.37
2019-05-17T08:08:52.942Z,10.93
2019-05-17T08:11:32.806Z,11.07
2019-05-17T08:14:26.493Z,11.43
2019-05-17T08:16:55.242Z,9.83
2019-05-17T08:19:35.618Z,10.27
2019-05-17T08:22:15.743Z,11.27
2019-05-17T08:24:55.785Z,10.80
2019-05-17T08:27:35.861Z,11.63
2019-05-17T08:30:15.862Z,11.33
2019-05-17T08:32:55.882Z,11.28
2019-05-17T08:35:36.026Z,11.15
2019-05-17T08:38:16.221Z,11.03
2019-05-17T08:40:56.450Z,12.33
2019-05-17T08:43:42.546Z,10.75
2019-05-17T08:46:19.863Z,11.95
2019-05-17T08:49:00.387Z,13.32
2019-05-17T08:51:40.648Z,12.88
2019-05-17T08:54:20.666Z,14.58
2019-05-17T08:57:00.801Z,15.15
2019-05-17T08:59:40.964Z,14.78
2019-05-17T09:02:10.857Z,14.75
2019-05-17T09:04:57.405Z,14.47
2019-05-17T09:07:37.025Z,15.00
2019-05-17T09:10:16.727Z,14.98
2019-05-17T09:12:59.534Z,15.95
2019-05-17T09:15:40.063Z,15.90
2019-05-17T09:18:20.755Z,15.85
2019-05-17T09:20:49.615Z,15.83
2019-05-17T09:23:36.610Z,15.78
2019-05-17T09:26:24.156Z,16.93
2019-05-17T09:29:11.309Z,16.97
2019-05-17T09:31:51.035Z,17.77
2019-05-17T09:34:31.081Z,16.37
2019-05-17T09:37:14.494Z,16.85
2019-05-17T09:39:40.927Z,18.17
2019-05-17T09:42:29.997Z,16.52
2019-05-17T09:44:57.507Z,16.90
2019-05-17T09:47:44.526Z,16.70
2019-05-17T09:50:31.549Z,16.57
2019-05-17T09:53:20.158Z,17.55
2019-05-17T09:56:00.853Z,17.42
2019-05-17T09:58:29.932Z,17.52
2019-05-17T10:01:19.511Z,17.07
2019-05-17T10:03:59.986Z,16.40
2019-05-17T10:06:40.136Z,16.17
2019-05-17T10:09:20.029Z,17.12
2019-05-17T10:12:00.068Z,16.65
2019-05-17T10:14:40.125Z,16.82
2019-05-17T10:17:21.175Z,17.32
2019-05-17T10:20:01.678Z,16.85
2019-05-17T10:22:41.422Z,16.52
2019-05-17T10:25:09.844Z,16.87
2019-05-17T10:27:37.565Z,16.57
2019-05-17T10:30:05.329Z,16.48
2019-05-17T10:32:33.002Z,17.05
2019-05-17T10:35:00.655Z,17.00
2019-05-17T10:37:30.265Z,18.02
2019-05-17T10:39:57.834Z,16.60
2019-05-17T10:42:25.678Z,16.65
2019-05-17T10:44:54.743Z,17.82
2019-05-17T10:47:22.556Z,17.62
2019-05-17T10:49:50.163Z,17.05
2019-05-17T10:52:20.169Z,17.30
2019-05-17T10:57:54.053Z,16.47
2019-05-17T11:00:41.579Z,16.75
2019-05-17T11:03:25.834Z,16.13
2019-05-17T11:06:05.717Z,17.32
2019-05-17T11:08:45.854Z,17.70
2019-05-17T11:11:13.484Z,16.95
2019-05-17T11:14:00.529Z,16.57
2019-05-17T11:16:47.533Z,17.87
2019-05-17T11:19:27.294Z,17.87
2019-05-17T11:22:07.429Z,16.82
2019-05-17T11:24:47.538Z,15.83
2019-05-17T11:27:27.596Z,16.62
2019-05-17T11:30:07.822Z,18.02
2019-05-17T11:32:47.975Z,15.88
2019-05-17T11:35:28.222Z,16.87
2019-05-17T11:38:08.348Z,16.27
2019-05-17T11:40:50.010Z,16.02
2019-05-17T11:43:32.624Z,15.45
2019-05-17T11:46:00.262Z,14.78
2019-05-17T11:48:47.263Z,14.35
2019-05-17T11:51:27.581Z,14.73
2019-05-17T11:54:07.777Z,15.48
2019-05-17T11:56:47.590Z,14.50
2019-05-17T11:59:27.713Z,15.38
2019-05-17T12:02:07.870Z,15.80
2019-05-17T12:04:35.476Z,15.03
2019-05-17T12:07:22.585Z,14.93
2019-05-17T12:10:03.158Z,14.53
2019-05-17T12:12:43.218Z,14.45
2019-05-17T12:15:23.487Z,17.98
2019-05-17T12:18:03.412Z,15.18
2019-05-17T12:20:43.472Z,16.37
2019-05-17T12:23:23.794Z,16.20
2019-05-17T12:26:04.039Z,14.00
2019-05-17T12:28:44.149Z,15.23
2019-05-17T12:31:24.349Z,17.25
2019-05-17T12:34:04.427Z,15.28
2019-05-17T12:36:44.450Z,15.88
2019-05-17T12:39:24.926Z,13.08
2019-05-17T12:42:05.002Z,13.32
2019-05-17T12:44:45.909Z,12.13
2019-05-17T12:47:26.295Z,12.82
2019-05-17T12:50:06.358Z,13.45
2019-05-17T12:52:46.621Z,12.95
2019-05-17T12:55:26.769Z,12.95
2019-05-17T12:58:06.790Z,12.85
2019-05-17T13:00:46.778Z,13.30
2019-05-17T13:03:27.237Z,12.03
2019-05-17T13:06:07.361Z,12.58
2019-05-17T13:08:46.961Z,12.93
2019-05-17T13:11:27.374Z,13.45
2019-05-17T13:14:07.494Z,13.22
2019-05-17T13:16:47.689Z,13.37
2019-05-17T13:19:27.977Z,14.87
2019-05-17T13:22:07.858Z,15.10
2019-05-17T13:24:48.081Z,13.70
2019-05-17T13:27:28.086Z,13.77
2019-05-17T13:30:08.243Z,15.70
2019-05-17T13:32:48.454Z,17.03
2019-05-17T13:38:26.778Z,17.87
2019-05-17T13:41:06.921Z,16.30
2019-05-17T13:43:47.096Z,16.87
2019-05-17T13:46:33.229Z,17.20
2019-05-17T13:49:09.363Z,17.10
2019-05-17T13:54:35.945Z,18.43
2019-05-17T13:57:22.966Z,18.60
2019-05-17T14:00:02.857Z,18.60
2019-05-17T14:02:43.043Z,16.40
2019-05-17T14:05:23.249Z,15.80
2019-05-17T14:08:03.329Z,16.20
2019-05-17T14:10:43.654Z,17.03
2019-05-17T14:13:23.860Z,17.93
2019-05-17T14:16:04.073Z,18.17
2019-05-17T14:18:44.150Z,18.10
2019-05-17T14:21:24.168Z,18.37
2019-05-17T14:24:04.354Z,17.87
2019-05-17T14:26:44.582Z,17.67
2019-05-17T14:29:25.433Z,18.17
2019-05-17T14:32:05.728Z,17.13
2019-05-17T14:34:46.065Z,17.87
2019-05-17T14:37:25.784Z,17.17
2019-05-17T14:40:05.763Z,17.23
2019-05-17T14:42:45.777Z,17.63
2019-05-17T14:45:13.322Z,19.17
2019-05-17T14:48:00.349Z,18.70
2019-05-17T14:50:47.410Z,16.63
2019-05-17T14:53:27.194Z,17.77
2019-05-17T14:56:07.327Z,18.77
2019-05-17T14:58:47.680Z,16.10
2019-05-17T15:01:27.715Z,14.77
2019-05-17T15:04:08.144Z,15.33
2019-05-17T15:06:48.302Z,14.60
2019-05-17T15:09:28.482Z,14.37
2019-05-17T15:12:08.321Z,14.00
2019-05-17T15:14:36.718Z,14.70
2019-05-17T15:17:23.833Z,14.50
2019-05-17T15:20:03.682Z,14.00
2019-05-17T15:22:44.914Z,16.63
2019-05-17T15:25:25.049Z,14.03
2019-05-17T15:28:05.291Z,12.40
2019-05-17T15:30:45.338Z,11.17
2019-05-17T15:33:25.578Z,10.97
2019-05-17T15:36:05.770Z,8.20
2019-05-17T15:38:45.858Z,6.77
2019-05-17T15:41:26.177Z,5.87
2019-05-17T15:44:06.347Z,5.20
2019-05-17T15:46:46.309Z,5.50
2019-05-17T15:49:26.230Z,6.97
2019-05-17T15:52:06.375Z,6.20
2019-05-17T15:54:48.569Z,4.67
2019-05-17T15:57:28.743Z,4.80
2019-05-17T16:00:08.770Z,4.20
2019-05-17T16:02:48.850Z,4.90
2019-05-17T16:05:28.878Z,3.80
2019-05-17T16:08:09.053Z,4.63
2019-05-17T16:10:49.322Z,4.80
2019-05-17T16:13:29.458Z,4.53
2019-05-17T16:16:09.279Z,4.20
2019-05-17T16:18:49.194Z,3.50
2019-05-17T16:21:29.270Z,3.50
2019-05-17T16:24:09.390Z,3.20
2019-05-17T16:26:49.571Z,3.67
2019-05-17T16:29:29.602Z,3.60
2019-05-17T16:32:09.754Z,3.30
2019-05-17T16:34:49.705Z,2.90
2019-05-17T16:37:29.878Z,3.37
2019-05-17T16:40:09.983Z,3.27
2019-05-17T16:42:49.996Z,3.27
2019-05-17T16:45:30.128Z,3.20
2019-05-17T16:48:10.298Z,2.80
2019-05-17T16:50:50.179Z,2.67
2019-05-17T16:53:30.329Z,2.67
2019-05-17T16:56:10.253Z,2.60
2019-05-17T16:58:50.236Z,3.00
2019-05-17T17:01:30.426Z,2.70
2019-05-17T17:04:10.943Z,2.40
2019-05-17T17:06:51.135Z,2.73
2019-05-17T17:09:31.258Z,2.33
2019-05-17T17:12:11.498Z,2.43
2019-05-17T17:14:51.489Z,2.50
2019-05-17T17:17:31.661Z,2.30
2019-05-17T17:20:11.894Z,2.30
2019-05-17T17:22:52.290Z,2.50
2019-05-17T17:25:32.357Z,2.27
2019-05-17T17:28:00.141Z,2.10
2019-05-17T17:30:47.146Z,2.20
2019-05-17T17:33:34.231Z,2.07
2019-05-17T17:36:14.770Z,2.27
2019-05-17T17:38:55.813Z,1.90
2019-05-17T17:47:19.633Z,2.30
2019-05-17T17:49:59.669Z,2.20
2019-05-17T17:52:39.602Z,1.73
2019-05-17T17:55:28.965Z,2.07
2019-05-17T17:58:16.017Z,1.90
2019-05-17T18:01:03.299Z,2.00
2019-05-17T18:03:53.389Z,1.77
2019-05-17T18:06:33.491Z,1.73
2019-05-17T18:09:13.541Z,1.80
2019-05-17T18:11:53.800Z,1.90
2019-05-17T18:14:34.239Z,1.90
2019-05-17T18:17:14.322Z,1.77
2019-05-17T18:19:54.605Z,2.00
2019-05-17T18:25:33.601Z,2.10
2019-05-17T18:28:13.520Z,2.40
2019-05-17T18:30:53.566Z,2.13
2019-05-17T18:33:33.777Z,2.47
2019-05-17T18:36:14.380Z,2.27
2019-05-17T18:38:54.286Z,2.00
2019-05-17T18:41:34.409Z,1.80
2019-05-17T18:44:27.045Z,1.87
2019-05-17T18:46:56.777Z,2.23
2019-05-17T18:49:36.867Z,2.03
2019-05-17T18:52:16.952Z,2.30
2019-05-17T18:54:57.037Z,1.63
2019-05-17T18:57:37.250Z,1.80
2019-05-17T19:00:17.674Z,1.70
2019-05-17T19:02:57.574Z,1.70
2019-05-17T19:05:37.644Z,1.70
2019-05-17T19:08:17.621Z,2.07
2019-05-17T19:10:57.641Z,1.60
2019-05-17T19:13:25.346Z,1.60
2019-05-17T19:16:12.442Z,1.50
2019-05-17T19:18:40.114Z,1.80
2019-05-17T19:21:29.241Z,2.10
2019-05-17T19:24:16.369Z,2.00
2019-05-17T19:26:43.937Z,2.10
2019-05-17T19:29:11.713Z,1.90
2019-05-17T19:31:58.792Z,1.97
2019-05-17T19:34:38.343Z,2.10
2019-05-17T19:37:18.343Z,1.83
2019-05-17T19:39:58.617Z,2.00
2019-05-17T19:42:38.834Z,2.00
2019-05-17T19:45:18.897Z,2.50
2019-05-17T19:47:59.078Z,2.60
2019-05-17T19:50:39.069Z,3.00
2019-05-17T19:53:19.330Z,1.80
2019-05-17T19:55:59.445Z,1.83
2019-05-17T19:58:39.673Z,1.90
2019-05-17T20:01:19.829Z,2.10
2019-05-17T20:03:59.886Z,2.10
2019-05-17T20:06:40.291Z,2.00
2019-05-17T20:09:19.974Z,1.83
2019-05-17T20:12:00.191Z,1.90
2019-05-17T20:14:42.066Z,1.60
2019-05-17T20:17:22.494Z,1.90
2019-05-17T20:20:02.954Z,1.90
2019-05-17T20:22:43.162Z,1.93
2019-05-17T20:25:11.218Z,2.00
2019-05-17T20:27:38.823Z,1.80
2019-05-17T20:30:06.769Z,1.80
2019-05-17T20:32:35.253Z,1.90
2019-05-17T20:35:02.877Z,1.97
2019-05-17T20:37:30.606Z,2.97
2019-05-17T20:39:58.217Z,2.87
2019-05-17T20:42:25.789Z,2.83
2019-05-17T20:44:53.405Z,2.80
2019-05-17T20:47:21.022Z,2.87
2019-05-17T20:49:48.865Z,3.00
2019-05-17T20:52:16.437Z,2.53
2019-05-17T20:54:44.017Z,2.90
2019-05-17T20:57:11.645Z,3.00
2019-05-17T20:59:39.245Z,2.50
2019-05-17T21:02:06.853Z,2.73
2019-05-17T21:04:34.437Z,2.90
2019-05-17T21:07:02.095Z,3.07
2019-05-17T21:09:29.798Z,2.57
2019-05-17T21:11:57.455Z,2.70
2019-05-17T21:14:25.146Z,2.63
2019-05-17T21:16:52.869Z,3.30
2019-05-17T21:19:20.489Z,3.00
2019-05-17T21:21:48.093Z,2.90
2019-05-17T21:24:15.711Z,2.97
2019-05-17T21:26:43.973Z,3.10
2019-05-17T21:29:11.601Z,3.10
2019-05-17T21:31:39.229Z,3.10
2019-05-17T21:34:06.933Z,3.07
2019-05-17T21:36:34.541Z,2.90
2019-05-17T21:39:04.352Z,3.13
2019-05-17T21:41:32.005Z,3.23
2019-05-17T21:43:59.611Z,3.20
2019-05-17T21:46:27.213Z,3.00
2019-05-17T21:48:54.841Z,3.00
2019-05-17T21:51:22.418Z,3.80
2019-05-17T21:54:09.737Z,3.20
2019-05-17T21:56:49.829Z,2.80
2019-05-17T21:59:30.278Z,3.03
2019-05-17T22:02:10.374Z,2.83
2019-05-17T22:04:50.424Z,3.40
2019-05-17T22:07:30.792Z,3.23
2019-05-17T22:10:10.664Z,2.90
2019-05-17T22:12:50.769Z,2.80
2019-05-17T22:15:31.577Z,2.70
2019-05-17T22:18:11.502Z,2.67
2019-05-17T22:20:51.744Z,2.70
2019-05-17T22:23:32.027Z,3.60
2019-05-17T22:26:12.164Z,4.53
2019-05-17T22:28:52.138Z,6.73
2019-05-17T22:31:32.583Z,7.93
2019-05-17T22:34:12.642Z,7.67
2019-05-17T22:36:53.430Z,6.57
2019-05-17T22:39:33.461Z,3.40
2019-05-17T22:42:13.321Z,3.80
2019-05-17T22:44:53.250Z,3.20
2019-05-17T22:47:33.310Z,7.67
2019-05-17T22:50:13.253Z,7.70
2019-05-17T22:52:53.346Z,8.90
2019-05-17T22:55:33.639Z,10.47
2019-05-17T22:58:13.587Z,7.80
2019-05-17T23:00:53.863Z,4.93
2019-05-17T23:03:33.876Z,3.70
2019-05-17T23:06:14.081Z,4.00
2019-05-17T23:08:54.075Z,3.07
2019-05-17T23:11:34.197Z,3.07
2019-05-17T23:14:14.169Z,3.20
2019-05-17T23:16:54.276Z,2.90
2019-05-17T23:19:34.238Z,2.90
2019-05-17T23:22:14.558Z,2.70
2019-05-17T23:24:54.874Z,2.77
2019-05-17T23:27:35.091Z,2.60
2019-05-17T23:30:15.534Z,2.30
2019-05-17T23:32:55.710Z,2.63
2019-05-17T23:35:35.917Z,3.07
2019-05-17T23:38:16.045Z,2.87
2019-05-17T23:40:43.676Z,3.03
2019-05-17T23:43:30.706Z,3.13
2019-05-17T23:46:17.725Z,2.70
2019-05-17T23:48:59.424Z,3.13
2019-05-17T23:51:39.182Z,2.73
2019-05-17T23:54:19.257Z,2.70
2019-05-17T23:56:59.339Z,2.80
2019-05-17T23:59:39.603Z,2.90
